createdAt,value
2023-02-04T00:00:38.034Z,5.87
2023-02-04T00:05:38.773Z,5.86
2023-02-04T00:10:39.583Z,5.80
2023-02-04T00:15:40.333Z,5.74
2023-02-04T00:20:41.646Z,5.64
2023-02-04T00:25:42.367Z,5.61
2023-02-04T00:30:44.164Z,5.57
2023-02-04T00:35:44.900Z,5.51
2023-02-04T00:40:45.643Z,5.55
2023-02-04T00:45:46.477Z,5.43
2023-02-04T00:50:47.331Z,5.42
2023-02-04T00:55:48.087Z,5.37
2023-02-04T01:00:49.242Z,5.24
2023-02-04T01:05:50.020Z,5.08
2023-02-04T01:10:50.808Z,5.00
2023-02-04T01:15:51.571Z,4.93
2023-02-04T01:20:52.673Z,4.89
2023-02-04T01:25:53.567Z,4.91
2023-02-04T01:30:54.531Z,4.84
2023-02-04T01:35:55.357Z,4.85
2023-02-04T01:40:57.065Z,4.79
2023-02-04T01:45:58.843Z,4.75
2023-02-04T01:51:08.249Z,4.80
2023-02-04T01:56:19.376Z,4.67
2023-02-04T02:01:44.193Z,4.63
2023-02-04T02:06:53.106Z,4.66
2023-02-04T02:11:54.324Z,4.62
2023-02-04T02:16:55.382Z,4.60
2023-02-04T02:22:04.606Z,4.61
2023-02-04T02:27:08.449Z,4.58
2023-02-04T02:32:11.809Z,4.60
2023-02-04T02:37:13.214Z,4.69
2023-02-04T02:42:16.833Z,4.67
2023-02-04T02:47:20.912Z,4.59
2023-02-04T02:52:22.226Z,4.55
2023-02-04T02:57:23.251Z,4.55
2023-02-04T03:02:24.428Z,4.58
2023-02-04T03:07:25.761Z,4.67
2023-02-04T03:12:26.608Z,4.66
2023-02-04T03:17:29.356Z,4.74
2023-02-04T03:22:30.377Z,4.57
2023-02-04T03:27:32.292Z,4.54
2023-02-04T03:32:33.335Z,4.53
2023-02-04T03:37:34.126Z,4.48
2023-02-04T03:42:34.870Z,4.50
2023-02-04T03:47:36.012Z,4.48
2023-02-04T03:52:36.909Z,4.50
2023-02-04T03:57:37.659Z,4.46
2023-02-04T04:02:39.844Z,4.39
2023-02-04T04:07:40.625Z,4.40
2023-02-04T04:12:41.409Z,4.47
2023-02-04T04:17:42.203Z,4.52
2023-02-04T04:22:44.843Z,4.54
2023-02-04T04:27:46.528Z,4.57
2023-02-04T04:32:47.297Z,4.57
2023-02-04T04:37:48.111Z,4.53
2023-02-04T04:42:48.855Z,4.53
2023-02-04T04:47:49.684Z,4.52
2023-02-04T04:52:50.606Z,4.40
2023-02-04T04:57:51.366Z,4.35
2023-02-04T05:02:52.104Z,4.25
2023-02-04T05:07:52.935Z,4.18
2023-02-04T05:12:53.673Z,4.19
2023-02-04T05:17:54.551Z,4.25
2023-02-04T05:22:56.508Z,4.17
2023-02-04T05:27:57.277Z,4.10
2023-02-04T05:32:58.347Z,4.16
2023-02-04T05:37:59.072Z,4.14
2023-02-04T05:43:00.011Z,4.17
2023-02-04T05:48:00.958Z,4.11
2023-02-04T05:53:01.791Z,4.18
2023-02-04T05:58:02.567Z,4.27
2023-02-04T06:03:03.472Z,4.30
2023-02-04T06:08:04.339Z,4.23
2023-02-04T06:13:05.095Z,4.22
2023-02-04T06:18:06.537Z,4.35
2023-02-04T06:23:07.497Z,4.37
2023-02-04T06:28:08.316Z,4.35
2023-02-04T06:33:09.259Z,4.33
2023-02-04T06:38:09.996Z,4.35
2023-02-04T06:43:10.764Z,4.47
2023-02-04T06:48:11.468Z,4.48
2023-02-04T06:53:12.442Z,4.36
2023-02-04T06:58:13.167Z,4.33
2023-02-04T07:03:14.022Z,4.33
2023-02-04T07:08:14.713Z,4.50
2023-02-04T07:13:15.511Z,4.38
2023-02-04T07:18:17.099Z,4.34
2023-02-04T07:23:17.948Z,4.37
2023-02-04T07:28:19.188Z,4.43
2023-02-04T07:33:20.284Z,4.50
2023-02-04T07:38:20.996Z,4.48
2023-02-04T07:43:21.797Z,4.49
2023-02-04T07:48:22.614Z,4.45
2023-02-04T07:53:23.660Z,4.42
2023-02-04T07:58:24.380Z,4.42
2023-02-04T08:03:25.176Z,4.53
2023-02-04T08:08:26.128Z,4.63
2023-02-04T08:13:27.102Z,4.61
2023-02-04T08:18:28.220Z,4.44
2023-02-04T08:23:29.091Z,4.58
2023-02-04T08:28:29.795Z,4.54
2023-02-04T08:33:30.688Z,4.52
2023-02-04T08:38:31.471Z,4.52
2023-02-04T08:43:32.483Z,4.58
2023-02-04T08:48:33.246Z,4.77
2023-02-04T08:53:34.231Z,4.82
2023-02-04T08:58:35.402Z,4.97
2023-02-04T09:03:39.558Z,5.06
2023-02-04T09:08:40.283Z,5.13
2023-02-04T09:13:41.041Z,5.25
2023-02-04T09:18:41.779Z,5.38
2023-02-04T09:23:43.957Z,5.53
2023-02-04T09:28:44.903Z,5.39
2023-02-04T09:33:46.049Z,5.49
2023-02-04T09:38:46.812Z,5.71
2023-02-04T09:43:48.386Z,5.87
2023-02-04T09:48:50.341Z,5.87
2023-02-04T09:53:56.345Z,5.69
2023-02-04T09:58:57.078Z,5.67
2023-02-04T10:04:01.092Z,5.86
2023-02-04T10:09:02.264Z,6.05
2023-02-04T10:14:03.070Z,6.24
2023-02-04T10:19:06.877Z,6.36
2023-02-04T10:24:29.455Z,6.43
2023-02-04T10:29:30.378Z,6.69
2023-02-04T10:34:39.070Z,6.72
2023-02-04T10:39:42.724Z,6.80
2023-02-04T10:44:46.433Z,6.77
2023-02-04T10:50:21.918Z,6.83
2023-02-04T10:55:23.667Z,7.20
2023-02-04T11:00:25.335Z,7.96
2023-02-04T11:05:33.531Z,8.65
2023-02-04T11:10:35.527Z,9.03
2023-02-04T11:15:46.643Z,8.65
2023-02-04T11:20:51.379Z,8.17
2023-02-04T11:26:10.493Z,8.61
2023-02-04T11:31:38.622Z,8.36
2023-02-04T11:37:17.228Z,8.40
2023-02-04T11:42:32.434Z,8.22
2023-02-04T11:47:35.032Z,8.22
2023-02-04T11:52:35.791Z,8.92
2023-02-04T11:57:42.472Z,9.55
2023-02-04T12:02:46.687Z,9.63
2023-02-04T12:07:48.521Z,9.09
2023-02-04T12:12:57.020Z,8.64
2023-02-04T12:18:09.057Z,8.79
2023-02-04T12:23:09.859Z,9.63
2023-02-04T12:28:10.713Z,9.36
2023-02-04T12:33:13.563Z,8.78
2023-02-04T12:38:15.714Z,8.63
2023-02-04T12:43:16.431Z,9.61
2023-02-04T12:48:17.349Z,9.40
2023-02-04T12:53:18.223Z,9.73
2023-02-04T12:58:19.069Z,9.82
2023-02-04T13:03:19.855Z,9.76
2023-02-04T13:08:20.692Z,9.23
2023-02-04T13:13:21.917Z,8.64
2023-02-04T13:18:22.710Z,8.37
2023-02-04T13:23:23.443Z,8.44
2023-02-04T13:28:24.361Z,8.29
2023-02-04T13:33:25.068Z,8.33
2023-02-04T13:38:26.121Z,8.56
2023-02-04T13:43:26.896Z,8.30
2023-02-04T13:48:27.685Z,8.46
2023-02-04T13:53:30.309Z,9.07
2023-02-04T13:58:31.331Z,10.05
2023-02-04T14:03:32.072Z,10.99
2023-02-04T14:08:32.951Z,11.56
2023-02-04T14:13:33.779Z,11.15
2023-02-04T14:18:34.842Z,10.23
2023-02-04T14:23:36.282Z,9.55
2023-02-04T14:29:18.629Z,9.07
2023-02-04T14:34:20.464Z,8.73
2023-02-04T14:40:15.210Z,8.44
2023-02-04T14:45:19.792Z,8.09
2023-02-04T14:51:51.390Z,7.87
2023-02-04T14:56:52.157Z,7.83
2023-02-04T15:02:14.490Z,7.75
2023-02-04T15:07:18.297Z,7.48
2023-02-04T15:17:54.760Z,7.30
2023-02-04T15:28:33.446Z,7.36
2023-02-04T15:39:26.705Z,7.22
2023-02-04T15:44:54.957Z,7.22
2023-02-04T15:49:55.762Z,7.28
2023-02-04T15:55:30.730Z,7.33
2023-02-04T16:00:31.816Z,7.39
2023-02-04T16:05:56.384Z,7.28
2023-02-04T16:10:57.253Z,6.74
2023-02-04T16:16:17.792Z,6.57
2023-02-04T16:21:18.874Z,6.55
2023-02-04T16:26:23.683Z,6.36
2023-02-04T16:31:27.269Z,6.20
2023-02-04T16:36:35.582Z,6.07
2023-02-04T16:41:40.026Z,6.17
2023-02-04T16:46:54.699Z,6.15
2023-02-04T16:52:05.585Z,5.85
2023-02-04T16:57:21.297Z,5.56
2023-02-04T17:02:22.101Z,5.49
2023-02-04T17:08:13.798Z,5.36
2023-02-04T17:13:14.981Z,5.21
2023-02-04T17:18:30.928Z,5.12
2023-02-04T17:23:39.416Z,4.94
2023-02-04T17:28:41.073Z,4.90
2023-02-04T17:33:41.974Z,4.77
2023-02-04T17:38:49.900Z,4.84
2023-02-04T17:43:50.869Z,4.67
2023-02-04T17:48:53.888Z,4.63
2023-02-04T17:53:54.786Z,4.46
2023-02-04T17:59:01.262Z,4.36
2023-02-04T18:04:04.317Z,4.31
2023-02-04T18:09:23.045Z,4.21
2023-02-04T18:14:26.875Z,4.03
2023-02-04T18:19:36.438Z,3.66
2023-02-04T18:24:43.179Z,3.58
2023-02-04T18:29:50.586Z,3.48
2023-02-04T18:34:56.564Z,3.58
2023-02-04T18:42:01.976Z,3.35
2023-02-04T18:47:23.951Z,3.33
2023-02-04T18:52:26.500Z,3.21
2023-02-04T18:57:36.477Z,3.13
2023-02-04T19:04:12.160Z,3.17
2023-02-04T19:09:31.650Z,3.05
2023-02-04T19:14:44.211Z,3.06
2023-02-04T19:20:02.354Z,3.17
2023-02-04T19:25:38.933Z,3.26
2023-02-04T19:30:44.213Z,3.30
2023-02-04T19:35:53.335Z,3.42
2023-02-04T19:40:54.340Z,3.35
2023-02-04T19:45:58.025Z,3.29
2023-02-04T19:51:01.905Z,3.23
2023-02-04T20:02:57.432Z,3.14
2023-02-04T20:08:38.794Z,3.01
2023-02-04T20:13:45.371Z,2.88
2023-02-04T20:18:46.898Z,2.70
2023-02-04T20:24:03.331Z,2.42
2023-02-04T20:29:22.326Z,2.32
2023-02-04T20:34:26.660Z,2.39
2023-02-04T20:39:34.254Z,2.35
2023-02-04T20:44:42.951Z,2.49
2023-02-04T20:49:54.436Z,2.38
2023-02-04T20:55:05.615Z,2.47
2023-02-04T21:00:28.887Z,2.49
2023-02-04T21:05:41.922Z,2.44
2023-02-04T21:10:42.917Z,2.28
2023-02-04T21:16:00.093Z,2.35
2023-02-04T21:21:07.568Z,2.28
2023-02-04T21:26:08.325Z,2.28
2023-02-04T21:31:11.037Z,2.30
2023-02-04T21:36:11.823Z,2.40
2023-02-04T21:41:13.145Z,2.36
2023-02-04T21:46:14.379Z,2.39
2023-02-04T21:51:15.381Z,2.34
2023-02-04T21:56:16.136Z,2.55
2023-02-04T22:01:17.067Z,2.57
2023-02-04T22:06:17.812Z,2.59
2023-02-04T22:11:18.918Z,2.68
2023-02-04T22:16:19.679Z,2.66
2023-02-04T22:21:20.665Z,2.61
2023-02-04T22:26:21.386Z,2.68
2023-02-04T22:31:22.154Z,2.88
2023-02-04T22:36:22.909Z,3.04
2023-02-04T22:41:23.664Z,3.55
2023-02-04T22:46:24.821Z,3.27
2023-02-04T22:51:25.788Z,3.03
2023-02-04T22:56:27.459Z,2.90
2023-02-04T23:01:28.539Z,2.72
2023-02-04T23:06:29.434Z,2.71
2023-02-04T23:11:30.218Z,2.86
2023-02-04T23:16:31.069Z,3.01
2023-02-04T23:21:32.775Z,3.10
2023-02-04T23:26:33.636Z,3.11
2023-02-04T23:31:34.580Z,3.15
2023-02-04T23:36:35.834Z,3.21
2023-02-04T23:41:36.594Z,3.24
2023-02-04T23:46:37.366Z,3.17
2023-02-04T23:51:38.485Z,3.04
2023-02-04T23:56:39.456Z,2.97
